createdAt,value
2022-11-24T00:01:23.667Z,95.10
2022-11-24T00:03:56.541Z,95.22
2022-11-24T00:06:24.984Z,95.38
2022-11-24T00:08:55.509Z,94.80
2022-11-24T00:11:25.702Z,94.13
2022-11-24T00:13:54.411Z,94.40
2022-11-24T00:16:24.622Z,94.50
2022-11-24T00:18:56.488Z,94.69
2022-11-24T00:21:25.932Z,94.67
2022-11-24T00:23:54.271Z,94.65
2022-11-24T00:26:24.445Z,94.82
2022-11-24T00:28:55.429Z,95.01
2022-11-24T00:31:25.833Z,94.99
2022-11-24T00:33:57.096Z,94.86
2022-11-24T00:36:28.654Z,94.67
2022-11-24T00:38:57.830Z,94.75
2022-11-24T00:41:26.767Z,94.69
2022-11-24T00:43:55.848Z,94.14
2022-11-24T00:46:24.607Z,94.41
2022-11-24T00:48:53.810Z,94.65
2022-11-24T00:51:24.985Z,94.33
2022-11-24T00:53:55.592Z,94.39
2022-11-24T00:56:23.914Z,94.49
2022-11-24T00:58:52.311Z,94.87
2022-11-24T01:01:23.408Z,95.00
2022-11-24T01:03:51.919Z,94.30
2022-11-24T01:06:22.168Z,94.56
2022-11-24T01:08:51.992Z,94.84
2022-11-24T01:11:21.588Z,94.58
2022-11-24T01:13:53.052Z,94.97
2022-11-24T01:16:23.430Z,94.93
2022-11-24T01:18:58.256Z,94.68
2022-11-24T01:21:26.671Z,94.82
2022-11-24T01:23:56.243Z,94.84
2022-11-24T01:26:24.322Z,94.76
2022-11-24T01:28:54.639Z,94.84
2022-11-24T01:31:23.379Z,94.76
2022-11-24T01:33:51.547Z,94.82
2022-11-24T01:36:20.208Z,94.80
2022-11-24T01:38:48.337Z,94.86
2022-11-24T01:41:20.538Z,94.95
2022-11-24T01:43:49.462Z,95.09
2022-11-24T01:46:23.557Z,95.07
2022-11-24T01:48:57.296Z,94.63
2022-11-24T01:51:28.002Z,94.56
2022-11-24T01:54:00.622Z,94.18
2022-11-24T01:56:31.469Z,93.84
2022-11-24T01:59:07.772Z,93.84
2022-11-24T02:01:35.963Z,94.10
2022-11-24T02:04:07.318Z,94.23
2022-11-24T02:06:37.999Z,93.68
2022-11-24T02:09:12.708Z,93.84
2022-11-24T02:11:44.738Z,93.98
2022-11-24T02:14:14.918Z,93.85
2022-11-24T02:16:45.808Z,93.43
2022-11-24T02:19:22.124Z,93.89
2022-11-24T02:21:50.224Z,93.74
2022-11-24T02:24:25.278Z,93.45
2022-11-24T02:26:54.754Z,93.65
2022-11-24T02:29:25.226Z,93.42
2022-11-24T02:31:59.568Z,93.46
2022-11-24T02:34:28.550Z,93.07
2022-11-24T02:36:56.539Z,93.27
2022-11-24T02:39:25.154Z,92.98
2022-11-24T02:41:58.506Z,92.93
2022-11-24T02:44:32.185Z,93.09
2022-11-24T02:47:05.360Z,93.13
2022-11-24T02:49:33.418Z,93.18
2022-11-24T02:52:01.829Z,92.58
2022-11-24T02:54:30.240Z,93.15
2022-11-24T02:56:59.846Z,92.13
2022-11-24T02:59:27.903Z,92.48
2022-11-24T03:01:58.060Z,92.33
2022-11-24T03:04:26.329Z,93.24
2022-11-24T03:06:54.348Z,92.53
2022-11-24T03:09:22.406Z,93.05
2022-11-24T03:11:50.810Z,93.02
2022-11-24T03:14:20.184Z,92.37
2022-11-24T03:16:48.486Z,92.66
2022-11-24T03:19:16.447Z,93.01
2022-11-24T03:21:48.449Z,92.81
2022-11-24T03:24:18.872Z,92.55
2022-11-24T03:26:46.999Z,91.74
2022-11-24T03:29:14.982Z,90.59
2022-11-24T03:31:44.392Z,88.16
2022-11-24T03:34:12.644Z,88.49
2022-11-24T03:36:41.570Z,89.27
2022-11-24T03:39:09.924Z,88.37
2022-11-24T03:41:37.880Z,87.72
2022-11-24T03:44:06.197Z,88.98
2022-11-24T03:46:34.575Z,88.07
2022-11-24T03:49:04.277Z,88.04
2022-11-24T03:51:32.582Z,89.19
2022-11-24T03:54:00.611Z,87.68
2022-11-24T03:56:29.324Z,88.92
2022-11-24T03:58:57.377Z,88.79
2022-11-24T04:01:25.352Z,87.45
2022-11-24T04:03:53.399Z,87.84
2022-11-24T04:06:22.736Z,87.72
2022-11-24T04:08:50.819Z,86.32
2022-11-24T04:11:32.881Z,86.81
2022-11-24T04:14:01.096Z,87.07
2022-11-24T04:16:29.577Z,86.58
2022-11-24T04:18:57.617Z,86.54
2022-11-24T04:21:27.413Z,86.25
2022-11-24T04:23:55.331Z,86.30
2022-11-24T04:26:23.357Z,86.43
2022-11-24T04:28:51.396Z,86.47
2022-11-24T04:31:19.874Z,87.30
2022-11-24T04:33:47.975Z,86.56
2022-11-24T04:36:18.100Z,86.20
2022-11-24T04:39:23.679Z,86.97
2022-11-24T04:41:35.925Z,86.43
2022-11-24T04:44:03.982Z,85.66
2022-11-24T04:46:32.136Z,85.62
2022-11-24T04:49:00.143Z,85.28
2022-11-24T04:51:28.193Z,86.34
2022-11-24T04:53:57.589Z,85.97
2022-11-24T04:56:25.561Z,85.84
2022-11-24T04:58:53.607Z,85.26
2022-11-24T05:04:38.053Z,85.90
2022-11-24T05:07:06.899Z,86.23
2022-11-24T05:09:59.556Z,85.78
2022-11-24T05:12:31.240Z,85.98
2022-11-24T05:15:00.262Z,85.65
2022-11-24T05:17:30.705Z,85.70
2022-11-24T05:19:59.270Z,84.10
2022-11-24T05:22:29.329Z,83.80
2022-11-24T05:24:59.175Z,83.87
2022-11-24T05:27:27.450Z,84.10
2022-11-24T05:29:55.485Z,84.65
2022-11-24T05:32:23.607Z,85.04
2022-11-24T05:34:53.128Z,84.00
2022-11-24T05:37:21.257Z,82.93
2022-11-24T05:39:49.294Z,84.01
2022-11-24T05:42:36.327Z,83.74
2022-11-24T05:45:04.864Z,84.22
2022-11-24T05:47:33.096Z,83.51
2022-11-24T05:50:01.234Z,85.18
2022-11-24T05:52:29.248Z,84.77
2022-11-24T05:55:03.819Z,83.99
2022-11-24T05:57:33.632Z,84.18
2022-11-24T06:00:01.974Z,84.15
2022-11-24T06:02:40.467Z,83.59
2022-11-24T06:05:09.414Z,82.94
2022-11-24T06:07:38.702Z,84.12
2022-11-24T06:10:07.069Z,83.87
2022-11-24T06:12:37.079Z,83.57
2022-11-24T06:15:05.906Z,82.87
2022-11-24T06:17:38.265Z,83.35
2022-11-24T06:20:08.071Z,83.43
2022-11-24T06:22:36.098Z,83.59
2022-11-24T06:25:04.300Z,83.56
2022-11-24T06:27:32.462Z,82.86
2022-11-24T06:30:01.888Z,81.97
2022-11-24T06:32:29.918Z,81.31
2022-11-24T06:34:58.076Z,81.70
2022-11-24T06:37:26.190Z,81.93
2022-11-24T06:39:54.275Z,81.92
2022-11-24T06:42:22.300Z,81.52
2022-11-24T06:44:51.236Z,80.42
2022-11-24T06:47:20.718Z,80.95
2022-11-24T06:49:48.841Z,81.03
2022-11-24T06:52:17.073Z,80.21
2022-11-24T06:54:45.318Z,80.30
2022-11-24T06:57:13.668Z,79.72
2022-11-24T06:59:41.689Z,79.76
2022-11-24T07:02:10.712Z,79.53
2022-11-24T07:04:40.211Z,79.90
2022-11-24T07:07:08.840Z,80.29
2022-11-24T07:09:36.897Z,79.84
2022-11-24T07:12:06.092Z,79.87
2022-11-24T07:14:34.744Z,80.01
2022-11-24T07:17:04.808Z,80.23
2022-11-24T07:19:33.163Z,80.62
2022-11-24T07:22:02.788Z,80.28
2022-11-24T07:24:31.164Z,80.57
2022-11-24T07:27:00.229Z,80.02
2022-11-24T07:29:28.553Z,80.64
2022-11-24T07:32:00.772Z,80.67
2022-11-24T07:34:32.029Z,81.71
2022-11-24T07:37:00.321Z,81.19
2022-11-24T07:39:29.670Z,81.22
2022-11-24T07:41:59.318Z,81.45
2022-11-24T07:44:29.457Z,82.30
2022-11-24T07:46:57.542Z,82.86
2022-11-24T07:49:27.737Z,82.89
2022-11-24T07:51:57.785Z,82.54
2022-11-24T07:54:25.841Z,82.93
2022-11-24T07:56:55.510Z,82.37
2022-11-24T07:59:23.625Z,82.09
2022-11-24T08:01:51.954Z,82.64
2022-11-24T08:04:20.155Z,81.86
2022-11-24T08:06:48.227Z,82.30
2022-11-24T08:09:16.255Z,83.18
2022-11-24T08:11:44.608Z,83.48
2022-11-24T08:14:14.006Z,81.98
2022-11-24T08:16:42.236Z,81.15
2022-11-24T08:19:12.021Z,81.58
2022-11-24T08:21:40.375Z,82.18
2022-11-24T08:24:09.697Z,81.92
2022-11-24T08:26:38.213Z,81.96
2022-11-24T08:29:06.252Z,82.43
2022-11-24T08:31:36.296Z,81.30
2022-11-24T08:34:05.762Z,82.45
2022-11-24T08:36:34.478Z,82.20
2022-11-24T08:39:02.839Z,82.08
2022-11-24T08:41:32.039Z,82.06
2022-11-24T08:44:00.059Z,82.52
2022-11-24T08:46:28.137Z,82.16
2022-11-24T08:48:58.055Z,82.18
2022-11-24T08:51:27.939Z,83.08
2022-11-24T08:53:58.580Z,82.53
2022-11-24T08:56:26.960Z,82.69
2022-11-24T08:58:55.453Z,83.03
2022-11-24T09:01:23.903Z,82.62
2022-11-24T09:03:53.075Z,82.44
2022-11-24T09:06:25.054Z,83.54
2022-11-24T09:08:54.559Z,82.22
2022-11-24T09:11:23.069Z,82.24
2022-11-24T09:13:51.584Z,83.40
2022-11-24T09:16:22.962Z,82.58
2022-11-24T09:18:56.347Z,82.38
2022-11-24T09:21:25.771Z,82.27
2022-11-24T09:23:55.575Z,82.13
2022-11-24T09:26:26.346Z,81.62
2022-11-24T09:28:57.818Z,81.99
2022-11-24T09:31:27.256Z,82.62
2022-11-24T09:33:55.943Z,81.64
2022-11-24T09:36:25.998Z,82.40
2022-11-24T09:38:54.163Z,82.42
2022-11-24T09:41:40.484Z,82.61
2022-11-24T09:44:23.178Z,82.06
2022-11-24T09:47:01.015Z,82.11
2022-11-24T09:49:34.653Z,83.24
2022-11-24T09:52:12.014Z,83.15
2022-11-24T09:54:50.646Z,82.40
2022-11-24T09:57:22.149Z,82.49
2022-11-24T09:59:50.227Z,82.55
2022-11-24T10:02:18.253Z,82.04
2022-11-24T10:04:48.330Z,82.04
2022-11-24T10:07:25.980Z,81.54
2022-11-24T10:10:01.444Z,81.66
2022-11-24T10:12:42.345Z,81.57
2022-11-24T10:15:25.738Z,82.88
2022-11-24T10:18:31.072Z,82.13
2022-11-24T10:21:11.438Z,82.16
2022-11-24T10:24:07.538Z,82.43
2022-11-24T10:26:38.022Z,82.52
2022-11-24T10:29:21.264Z,82.14
2022-11-24T10:31:53.473Z,81.97
2022-11-24T10:34:28.489Z,79.25
2022-11-24T10:37:03.247Z,79.58
2022-11-24T10:39:37.325Z,79.17
2022-11-24T10:42:13.802Z,79.43
2022-11-24T10:44:43.709Z,79.50
2022-11-24T10:47:19.946Z,80.09
2022-11-24T10:49:56.558Z,79.36
2022-11-24T10:52:27.362Z,79.11
2022-11-24T10:55:02.617Z,78.90
2022-11-24T10:57:37.308Z,77.34
2022-11-24T11:00:37.234Z,77.78
2022-11-24T11:03:22.246Z,76.77
2022-11-24T11:05:54.086Z,76.11
2022-11-24T11:08:29.045Z,76.47
2022-11-24T11:11:23.913Z,75.97
2022-11-24T11:14:01.469Z,75.78
2022-11-24T11:16:38.260Z,76.19
2022-11-24T11:19:47.963Z,77.98
2022-11-24T11:22:23.194Z,77.16
2022-11-24T11:25:05.020Z,77.29
2022-11-24T11:27:34.800Z,78.16
2022-11-24T11:36:12.260Z,79.39
2022-11-24T11:38:41.636Z,79.61
2022-11-24T11:41:15.459Z,79.67
2022-11-24T11:43:46.589Z,80.15
2022-11-24T11:46:17.211Z,79.26
2022-11-24T11:48:47.473Z,80.06
2022-11-24T11:51:35.892Z,79.16
2022-11-24T11:54:10.816Z,79.22
2022-11-24T11:56:44.465Z,78.79
2022-11-24T11:59:34.015Z,79.53
2022-11-24T12:02:20.382Z,80.21
2022-11-24T12:04:51.207Z,79.95
2022-11-24T12:07:45.500Z,80.10
2022-11-24T12:10:24.774Z,78.55
2022-11-24T12:13:26.606Z,78.70
2022-11-24T12:15:58.877Z,79.15
2022-11-24T12:21:34.799Z,79.44
2022-11-24T12:24:11.727Z,79.09
2022-11-24T12:26:46.724Z,78.72
2022-11-24T12:29:55.299Z,77.85
2022-11-24T12:32:45.295Z,78.86
2022-11-24T12:35:23.793Z,78.64
2022-11-24T12:38:02.193Z,77.77
2022-11-24T12:40:46.948Z,78.10
2022-11-24T12:43:24.162Z,77.79
2022-11-24T12:46:00.267Z,77.14
2022-11-24T12:48:44.553Z,77.68
2022-11-24T12:51:18.482Z,78.09
2022-11-24T12:53:53.667Z,78.77
2022-11-24T12:56:27.954Z,78.00
2022-11-24T12:59:04.950Z,78.60
2022-11-24T13:01:38.024Z,78.03
2022-11-24T13:04:16.047Z,79.17
2022-11-24T13:06:52.585Z,79.02
2022-11-24T13:09:21.520Z,78.25
2022-11-24T13:11:51.255Z,78.54
2022-11-24T13:14:22.101Z,79.06
2022-11-24T13:17:29.721Z,79.08
2022-11-24T13:19:48.935Z,79.35
2022-11-24T13:22:24.165Z,79.67
2022-11-24T13:25:14.821Z,79.13
2022-11-24T13:27:48.629Z,79.95
2022-11-24T13:30:50.434Z,80.27
2022-11-24T13:33:35.500Z,80.12
2022-11-24T13:36:33.354Z,80.41
2022-11-24T13:39:03.773Z,79.42
2022-11-24T13:42:43.861Z,79.13
2022-11-24T13:45:01.831Z,79.13
2022-11-24T13:47:35.763Z,79.80
2022-11-24T13:50:07.694Z,78.91
2022-11-24T13:52:50.204Z,78.18
2022-11-24T13:55:29.371Z,78.14
2022-11-24T13:58:01.977Z,78.98
2022-11-24T14:00:32.160Z,79.06
2022-11-24T14:03:03.804Z,78.15
2022-11-24T14:05:39.012Z,78.11
2022-11-24T14:08:19.364Z,78.61
2022-11-24T14:10:47.972Z,78.65
2022-11-24T14:13:34.698Z,78.30
2022-11-24T14:16:05.368Z,79.14
2022-11-24T14:18:34.104Z,79.05
2022-11-24T14:21:17.140Z,79.06
2022-11-24T14:23:48.272Z,79.55
2022-11-24T14:26:21.721Z,79.90
2022-11-24T14:28:50.743Z,78.49
2022-11-24T14:31:24.670Z,79.40
2022-11-24T14:34:19.339Z,78.60
2022-11-24T14:36:47.732Z,78.79
2022-11-24T14:39:18.657Z,78.31
2022-11-24T14:41:53.553Z,78.64
2022-11-24T14:44:27.322Z,78.73
2022-11-24T14:47:03.774Z,79.51
2022-11-24T14:49:33.585Z,78.90
2022-11-24T14:52:04.425Z,79.65
2022-11-24T14:54:34.282Z,79.60
2022-11-24T14:57:05.484Z,80.17
2022-11-24T14:59:36.192Z,80.22
2022-11-24T15:02:05.295Z,80.33
2022-11-24T15:07:26.869Z,81.50
2022-11-24T15:09:58.924Z,82.04
2022-11-24T15:12:30.898Z,80.90
2022-11-24T15:15:02.805Z,81.00
2022-11-24T15:17:31.886Z,81.82
2022-11-24T15:20:03.259Z,82.21
2022-11-24T15:22:40.900Z,82.38
2022-11-24T15:25:31.641Z,82.73
2022-11-24T15:27:59.741Z,83.17
2022-11-24T15:30:30.624Z,82.54
2022-11-24T15:33:00.248Z,82.97
2022-11-24T15:35:31.677Z,82.60
2022-11-24T15:38:00.061Z,82.50
2022-11-24T15:40:32.598Z,82.82
2022-11-24T15:43:05.036Z,82.90
2022-11-24T15:45:35.509Z,82.94
2022-11-24T15:48:03.645Z,83.05
2022-11-24T15:50:31.855Z,83.18
2022-11-24T15:53:00.105Z,83.29
2022-11-24T15:55:28.259Z,83.71
2022-11-24T15:57:57.943Z,83.90
2022-11-24T16:00:26.358Z,83.92
2022-11-24T16:02:55.806Z,84.06
2022-11-24T16:05:23.793Z,84.54
2022-11-24T16:07:54.922Z,85.23
2022-11-24T16:10:27.452Z,85.54
2022-11-24T16:12:56.996Z,85.82
2022-11-24T16:15:25.295Z,85.92
2022-11-24T16:17:53.661Z,85.96
2022-11-24T16:20:21.898Z,86.09
2022-11-24T16:22:49.981Z,86.05
2022-11-24T16:25:19.014Z,85.87
2022-11-24T16:27:47.341Z,85.98
2022-11-24T16:30:17.195Z,86.43
2022-11-24T16:32:46.309Z,86.38
2022-11-24T16:35:14.770Z,86.24
2022-11-24T16:37:43.344Z,85.84
2022-11-24T16:40:12.282Z,85.79
2022-11-24T16:42:42.402Z,85.98
2022-11-24T16:45:13.019Z,86.09
2022-11-24T16:47:44.124Z,86.12
2022-11-24T16:50:13.389Z,86.09
2022-11-24T16:52:41.631Z,85.85
2022-11-24T16:55:11.803Z,86.36
2022-11-24T16:57:41.938Z,86.20
2022-11-24T17:00:11.376Z,86.50
2022-11-24T17:02:39.724Z,86.34
2022-11-24T17:05:10.341Z,86.22
2022-11-24T17:07:38.453Z,86.71
2022-11-24T17:10:08.513Z,86.69
2022-11-24T17:12:38.019Z,87.40
2022-11-24T17:15:31.755Z,87.40
2022-11-24T17:18:23.078Z,87.33
2022-11-24T17:20:47.094Z,87.54
2022-11-24T17:23:16.046Z,87.76
2022-11-24T17:25:44.607Z,87.82
2022-11-24T17:28:13.330Z,87.44
2022-11-24T17:30:41.783Z,87.84
2022-11-24T17:33:10.453Z,87.52
2022-11-24T17:35:38.805Z,87.44
2022-11-24T17:38:08.939Z,87.48
2022-11-24T17:40:40.922Z,87.68
2022-11-24T17:43:13.735Z,87.68
2022-11-24T17:46:05.402Z,88.12
2022-11-24T17:48:34.565Z,88.28
2022-11-24T17:51:04.348Z,87.96
2022-11-24T17:53:33.833Z,88.10
2022-11-24T17:56:02.969Z,87.86
2022-11-24T17:58:32.636Z,87.52
2022-11-24T18:01:01.311Z,87.22
2022-11-24T18:03:31.733Z,87.35
2022-11-24T18:06:04.958Z,87.71
2022-11-24T18:08:35.559Z,87.96
2022-11-24T18:11:08.055Z,87.82
2022-11-24T18:16:28.149Z,88.38
2022-11-24T18:19:07.671Z,88.84
2022-11-24T18:21:37.356Z,88.90
2022-11-24T18:24:07.702Z,88.77
2022-11-24T18:26:35.778Z,88.63
2022-11-24T18:29:04.256Z,88.48
2022-11-24T18:31:36.482Z,89.00
2022-11-24T18:34:05.984Z,89.19
2022-11-24T18:36:35.855Z,89.52
2022-11-24T18:39:08.980Z,89.39
2022-11-24T18:41:37.381Z,89.35
2022-11-24T18:44:08.752Z,88.74
2022-11-24T18:46:37.668Z,88.53
2022-11-24T18:49:08.998Z,88.47
2022-11-24T18:51:37.521Z,88.25
2022-11-24T18:54:08.364Z,88.47
2022-11-24T18:56:37.601Z,88.65
2022-11-24T18:59:06.909Z,88.79
2022-11-24T19:01:37.873Z,88.63
2022-11-24T19:04:06.455Z,88.30
2022-11-24T19:06:36.550Z,88.63
2022-11-24T19:09:08.185Z,89.01
2022-11-24T19:11:41.859Z,88.41
2022-11-24T19:14:16.096Z,88.53
2022-11-24T19:16:45.373Z,89.11
2022-11-24T19:19:17.388Z,89.46
2022-11-24T19:21:46.262Z,89.23
2022-11-24T19:24:17.780Z,89.70
2022-11-24T19:26:46.631Z,89.39
2022-11-24T19:29:14.875Z,89.03
2022-11-24T19:31:44.283Z,88.90
2022-11-24T19:34:12.769Z,88.91
2022-11-24T19:36:43.424Z,88.66
2022-11-24T19:39:17.950Z,88.77
2022-11-24T19:41:46.658Z,88.35
2022-11-24T19:44:16.094Z,88.14
2022-11-24T19:46:45.087Z,88.03
2022-11-24T19:49:13.422Z,88.11
2022-11-24T19:51:42.071Z,88.39
2022-11-24T19:54:16.725Z,88.18
2022-11-24T19:56:46.298Z,88.64
2022-11-24T19:59:15.432Z,89.31
2022-11-24T20:01:43.785Z,89.04
2022-11-24T20:04:14.947Z,88.75
2022-11-24T20:06:44.716Z,89.34
2022-11-24T20:09:15.258Z,89.55
2022-11-24T20:11:45.572Z,89.51
2022-11-24T20:14:16.224Z,89.33
2022-11-24T20:16:58.828Z,89.45
2022-11-24T20:19:26.952Z,89.26
2022-11-24T20:22:02.229Z,89.36
2022-11-24T20:25:00.592Z,89.52
2022-11-24T20:27:51.965Z,89.47
2022-11-24T20:30:22.388Z,89.44
2022-11-24T20:33:20.397Z,89.43
2022-11-24T20:35:54.620Z,89.37
2022-11-24T20:38:27.920Z,89.40
2022-11-24T20:41:09.740Z,89.52
2022-11-24T20:43:44.124Z,89.31
2022-11-24T20:46:15.395Z,89.36
2022-11-24T20:49:13.044Z,89.59
2022-11-24T20:51:43.952Z,89.45
2022-11-24T20:54:15.702Z,89.35
2022-11-24T20:56:54.939Z,89.16
2022-11-24T20:59:26.199Z,88.66
2022-11-24T21:01:57.220Z,88.18
2022-11-24T21:04:27.460Z,88.11
2022-11-24T21:06:56.066Z,87.91
2022-11-24T21:09:24.833Z,88.02
2022-11-24T21:11:53.195Z,88.27
2022-11-24T21:14:21.857Z,88.32
2022-11-24T21:16:51.506Z,88.50
2022-11-24T21:19:20.123Z,88.73
2022-11-24T21:21:49.325Z,89.28
2022-11-24T21:24:21.802Z,87.77
2022-11-24T21:26:53.047Z,86.95
2022-11-24T21:29:25.681Z,87.69
2022-11-24T21:31:59.524Z,88.59
2022-11-24T21:34:35.986Z,89.10
2022-11-24T21:37:07.378Z,89.85
2022-11-24T21:39:38.060Z,90.05
2022-11-24T21:42:08.669Z,90.04
2022-11-24T21:44:37.425Z,90.27
2022-11-24T21:47:11.202Z,90.03
2022-11-24T21:49:39.468Z,90.47
2022-11-24T21:52:07.660Z,90.94
2022-11-24T21:54:36.225Z,91.21
2022-11-24T21:57:05.295Z,91.32
2022-11-24T21:59:33.420Z,91.79
2022-11-24T22:02:02.830Z,92.34
2022-11-24T22:04:32.491Z,92.71
2022-11-24T22:07:00.737Z,92.76
2022-11-24T22:09:29.152Z,93.36
2022-11-24T22:12:01.598Z,93.32
2022-11-24T22:14:29.696Z,93.04
2022-11-24T22:16:58.090Z,91.13
2022-11-24T22:19:26.176Z,91.53
2022-11-24T22:21:55.852Z,92.04
2022-11-24T22:24:27.366Z,91.92
2022-11-24T22:26:56.229Z,92.59
2022-11-24T22:29:25.341Z,92.68
2022-11-24T22:31:53.725Z,93.15
2022-11-24T22:34:21.798Z,92.97
2022-11-24T22:36:49.821Z,92.81
2022-11-24T22:39:19.586Z,93.06
2022-11-24T22:41:48.720Z,93.51
2022-11-24T22:44:16.924Z,93.35
2022-11-24T22:46:44.998Z,93.12
2022-11-24T22:49:14.668Z,93.37
2022-11-24T22:51:44.783Z,93.64
2022-11-24T22:54:15.204Z,94.02
2022-11-24T22:56:44.930Z,93.84
2022-11-24T22:59:13.037Z,93.18
2022-11-24T23:01:41.509Z,91.77
2022-11-24T23:04:12.623Z,92.45
2022-11-24T23:06:40.960Z,92.33
2022-11-24T23:09:12.329Z,92.42
2022-11-24T23:11:41.781Z,92.60
2022-11-24T23:14:15.959Z,92.75
2022-11-24T23:16:44.620Z,92.76
2022-11-24T23:19:13.029Z,93.70
2022-11-24T23:21:41.309Z,93.58
2022-11-24T23:24:10.999Z,93.35
2022-11-24T23:26:42.400Z,93.04
2022-11-24T23:29:16.249Z,93.58
2022-11-24T23:31:44.294Z,94.08
2022-11-24T23:34:12.791Z,93.70
2022-11-24T23:36:41.868Z,94.09
2022-11-24T23:39:13.488Z,94.12
2022-11-24T23:41:41.856Z,93.91
2022-11-24T23:44:10.530Z,93.94
2022-11-24T23:46:40.178Z,93.67
2022-11-24T23:49:10.582Z,93.69
2022-11-24T23:51:42.029Z,93.60
2022-11-24T23:54:10.969Z,93.55
2022-11-24T23:56:43.049Z,93.63
2022-11-24T23:59:12.462Z,93.48
